Time;durP1;ratioP1;P1;durP2;ratioP2;P2;SDS_P1;SDS_P2;PMS_P1;PMS_P2;Temp;Humidity;BMP_temperature;BMP_pressure;BME280_temperature;BME280_humidity;BME280_pressure;Samples;Min_cycle;Max_cycle;Signal;HPM_P1;HPM_P2
2023/06/13 00:01:50;;;;;;;14.25;5.07;;;;;;;18.68;100.00;101345.81;5013426;28;20064;-65
2023/06/13 00:04:23;;;;;;;14.68;5.70;;;;;;;18.54;100.00;101346.69;5007813;28;20133;-65
2023/06/13 00:06:53;;;;;;;16.58;5.65;;;;;;;18.32;100.00;101341.84;5005700;28;20164;-65
2023/06/13 00:09:22;;;;;;;13.82;5.28;;;;;;;18.28;100.00;101343.81;5006817;28;20050;-65
2023/06/13 00:11:49;;;;;;;11.93;5.18;;;;;;;18.32;100.00;101334.72;5009395;28;20104;-65
2023/06/13 00:14:21;;;;;;;14.25;4.93;;;;;;;18.46;100.00;101325.09;5005995;28;20621;-65
2023/06/13 00:16:48;;;;;;;14.02;4.78;;;;;;;18.40;100.00;101335.13;5009591;28;20419;-65
2023/06/13 00:19:16;;;;;;;12.93;4.95;;;;;;;18.32;100.00;101342.69;5005467;28;20395;-65
2023/06/13 00:21:45;;;;;;;11.73;4.25;;;;;;;18.22;100.00;101333.59;5014076;28;20056;-65
2023/06/13 00:24:12;;;;;;;11.52;5.15;;;;;;;18.13;100.00;101327.06;5004614;28;20487;-65
2023/06/13 00:26:39;;;;;;;18.90;4.63;;;;;;;18.18;100.00;101334.72;5009677;28;20053;-65
2023/06/13 00:29:06;;;;;;;13.23;5.03;;;;;;;17.98;100.00;101327.97;5004254;28;20053;-65
2023/06/13 00:31:32;;;;;;;9.50;4.05;;;;;;;18.07;100.00;101334.50;5009511;28;20046;-65
2023/06/13 00:34:00;;;;;;;11.35;3.85;;;;;;;18.11;100.00;101334.22;5009841;28;20057;-65
2023/06/13 00:36:28;;;;;;;9.77;3.95;;;;;;;18.27;100.00;101338.59;5007003;28;20483;-65
2023/06/13 00:38:56;;;;;;;12.82;4.65;;;;;;;18.23;100.00;101324.69;5009143;28;20491;-65
2023/06/13 00:41:24;;;;;;;10.60;4.03;;;;;;;18.18;100.00;101326.75;5008934;28;20470;-65
2023/06/13 00:43:50;;;;;;;10.88;3.78;;;;;;;18.15;100.00;101321.63;5009979;28;20046;-65
2023/06/13 00:46:24;;;;;;;11.60;4.53;;;;;;;18.02;100.00;101325.06;5012640;28;20133;-65
2023/06/13 00:48:51;;;;;;;11.48;4.57;;;;;;;17.97;100.00;101327.13;5013338;28;20510;-65
2023/06/13 00:51:20;;;;;;;11.63;4.28;;;;;;;18.09;100.00;101333.47;5020796;28;20384;-65
2023/06/13 00:53:49;;;;;;;9.63;4.10;;;;;;;18.13;100.00;101327.06;5012690;28;20096;-65
2023/06/13 00:56:16;;;;;;;12.75;4.38;;;;;;;18.14;100.00;101328.75;5009132;28;20053;-65
2023/06/13 00:58:43;;;;;;;12.95;4.35;;;;;;;17.99;100.00;101306.69;5012919;28;20050;-65
2023/06/13 01:01:09;;;;;;;10.68;3.78;;;;;;;18.09;100.00;101301.66;5012767;28;20391;-65
2023/06/13 01:03:39;;;;;;;13.95;4.20;;;;;;;18.11;100.00;101317.47;5013363;28;20049;-65
2023/06/13 01:06:05;;;;;;;12.70;4.80;;;;;;;18.01;100.00;101315.38;5011591;28;20133;-65
2023/06/13 01:08:35;;;;;;;13.35;4.47;;;;;;;17.81;100.00;101298.00;5012389;28;20049;-65
2023/06/13 01:11:20;;;;;;;11.10;4.22;;;;;;;17.95;100.00;101317.53;5012302;28;20462;-65
2023/06/13 01:13:53;;;;;;;12.80;4.47;;;;;;;17.93;100.00;101311.47;5010607;28;20121;-65
2023/06/13 01:16:29;;;;;;;12.10;3.92;;;;;;;18.00;100.00;101313.66;5013207;28;20056;-65
2023/06/13 01:18:58;;;;;;;14.40;4.63;;;;;;;17.89;100.00;101313.47;5012688;28;20054;-65
2023/06/13 01:21:26;;;;;;;12.88;3.97;;;;;;;17.86;100.00;101312.78;5011279;28;20049;-65
2023/06/13 01:24:27;;;;;;;12.82;4.32;;;;;;;17.94;100.00;101311.41;5015435;28;20480;-65
2023/06/13 01:26:58;;;;;;;11.75;4.15;;;;;;;17.97;100.00;101321.81;5012939;28;20593;-65
2023/06/13 01:29:28;;;;;;;13.23;4.35;;;;;;;17.87;100.00;101322.47;4999308;28;20081;-65
2023/06/13 01:31:57;;;;;;;11.43;4.57;;;;;;;17.79;100.00;101305.16;5017494;28;20046;-65
2023/06/13 01:34:24;;;;;;;17.25;4.80;;;;;;;17.67;100.00;101308.56;5013454;28;20049;-65
2023/06/13 01:36:51;;;;;;;12.27;4.50;;;;;;;17.79;100.00;101314.91;5006814;28;20089;-64
2023/06/13 01:39:18;;;;;;;20.38;5.50;;;;;;;17.72;100.00;101321.50;5012853;28;20436;-64
2023/06/13 01:41:45;;;;;;;15.30;5.10;;;;;;;17.68;100.00;101309.41;5011536;28;20367;-64
2023/06/13 01:44:17;;;;;;;11.95;4.35;;;;;;;17.74;100.00;101319.63;5012720;28;20093;-64
2023/06/13 01:47:22;;;;;;;12.10;4.75;;;;;;;17.93;100.00;101324.72;5012188;28;20108;-65
2023/06/13 01:49:55;;;;;;;13.85;4.53;;;;;;;17.92;100.00;101323.88;5004534;28;20053;-65
2023/06/13 01:52:25;;;;;;;12.35;3.95;;;;;;;17.89;100.00;101325.88;5022428;28;20080;-64
2023/06/13 01:55:00;;;;;;;13.77;5.13;;;;;;;17.83;100.00;101316.47;5011528;28;20049;-65
2023/06/13 01:57:36;;;;;;;14.27;4.00;;;;;;;17.76;100.00;101318.59;5012661;28;20495;-65
2023/06/13 02:00:04;;;;;;;12.13;5.13;;;;;;;17.44;100.00;101312.50;5000597;28;20071;-64
2023/06/13 02:02:32;;;;;;;12.95;4.53;;;;;;;17.60;100.00;101323.94;5014454;28;20045;-65
2023/06/13 02:04:59;;;;;;;13.77;4.72;;;;;;;17.68;100.00;101322.66;5010027;28;20063;-65
2023/06/13 02:07:27;;;;;;;11.45;4.07;;;;;;;17.63;100.00;101325.53;5004670;28;20741;-65
2023/06/13 02:09:54;;;;;;;13.30;4.28;;;;;;;17.56;100.00;101329.50;5004787;28;20565;-65
2023/06/13 02:12:21;;;;;;;15.75;4.57;;;;;;;17.51;100.00;101318.31;5010182;28;20041;-65
2023/06/13 02:14:48;;;;;;;11.18;3.30;;;;;;;17.68;100.00;101325.28;5012071;28;20522;-64
2023/06/13 02:17:15;;;;;;;13.82;4.30;;;;;;;17.65;100.00;101319.25;5011670;28;20054;-64
2023/06/13 02:19:41;;;;;;;16.45;4.75;;;;;;;17.54;100.00;101326.09;5004288;28;20503;-64
2023/06/13 02:22:08;;;;;;;10.55;4.00;;;;;;;17.47;100.00;101320.28;5020310;28;20081;-64
2023/06/13 02:24:35;;;;;;;15.00;4.60;;;;;;;17.52;100.00;101320.03;5011089;28;20050;-64
2023/06/13 02:27:02;;;;;;;13.02;4.47;;;;;;;17.31;100.00;101314.16;5009107;28;20104;-65
2023/06/13 02:29:31;;;;;;;11.20;4.07;;;;;;;17.15;100.00;101314.19;5001760;28;20530;-65
2023/06/13 02:31:58;;;;;;;11.30;4.03;;;;;;;17.18;100.00;101317.50;5010810;28;20137;-65
2023/06/13 02:34:25;;;;;;;11.35;4.38;;;;;;;17.31;100.00;101314.16;5011608;28;20050;-65
2023/06/13 02:36:52;;;;;;;13.00;4.15;;;;;;;17.41;100.00;101310.91;5011778;28;20758;-65
2023/06/13 02:39:18;;;;;;;12.40;4.53;;;;;;;17.46;100.00;101308.84;5011870;28;20046;-65
2023/06/13 02:41:45;;;;;;;11.57;4.00;;;;;;;17.31;100.00;101311.50;5010900;28;20042;-65
2023/06/13 02:44:12;;;;;;;11.38;4.13;;;;;;;17.35;100.00;101327.16;5011467;28;20132;-64
2023/06/13 02:46:38;;;;;;;11.45;3.83;;;;;;;17.29;100.00;101313.41;5010849;28;20042;-65
2023/06/13 02:49:05;;;;;;;15.10;5.20;;;;;;;17.14;100.00;101321.28;4999374;28;20102;-65
2023/06/13 02:51:32;;;;;;;11.95;3.92;;;;;;;17.25;100.00;101324.16;5014538;28;20608;-65
2023/06/13 02:53:58;;;;;;;12.75;4.05;;;;;;;17.14;100.00;101326.56;5010665;28;20086;-65
2023/06/13 02:56:26;;;;;;;8.77;3.05;;;;;;;17.24;100.00;101318.94;5007717;28;20049;-65
2023/06/13 02:58:52;;;;;;;10.55;4.07;;;;;;;17.32;100.00;101321.19;5009203;28;20395;-65
2023/06/13 03:01:19;;;;;;;10.02;3.85;;;;;;;17.26;100.00;101320.59;5011300;28;20144;-65
2023/06/13 03:03:47;;;;;;;10.38;3.42;;;;;;;17.30;100.00;101313.31;5009474;28;20077;-65
2023/06/13 03:06:17;;;;;;;10.25;3.53;;;;;;;17.22;100.00;101318.19;5010241;28;20077;-65
2023/06/13 03:08:44;;;;;;;12.02;3.65;;;;;;;17.18;100.00;101316.66;5010217;28;20793;-65
2023/06/13 03:11:12;;;;;;;10.32;4.38;;;;;;;17.20;100.00;101320.06;5009936;28;20144;-65
2023/06/13 03:13:39;;;;;;;10.55;3.92;;;;;;;17.14;100.00;101326.56;5007398;28;20133;-65
2023/06/13 03:16:06;;;;;;;12.27;3.67;;;;;;;17.17;100.00;101314.94;5009950;28;20050;-65
2023/06/13 03:18:34;;;;;;;8.15;3.25;;;;;;;17.33;100.00;101320.22;5008923;28;20132;-65
2023/06/13 03:21:01;;;;;;;8.82;3.25;;;;;;;17.25;100.00;101312.72;5015721;28;20073;-65
2023/06/13 03:23:31;;;;;;;8.90;3.67;;;;;;;17.19;100.00;101307.75;5009778;28;20684;-65
2023/06/13 03:25:57;;;;;;;12.25;4.00;;;;;;;17.17;100.00;101307.00;5007592;28;20580;-65
2023/06/13 03:28:24;;;;;;;11.50;4.40;;;;;;;17.10;100.00;101311.78;5002601;28;20049;-65
2023/06/13 03:30:51;;;;;;;10.80;4.00;;;;;;;17.05;100.00;101312.06;5010147;28;20068;-65
2023/06/13 03:33:18;;;;;;;14.15;4.00;;;;;;;16.99;100.00;101314.19;5010387;28;20562;-65
2023/06/13 03:35:45;;;;;;;11.20;4.22;;;;;;;16.98;100.00;101301.88;5009953;28;20083;-65
2023/06/13 03:38:12;;;;;;;9.20;3.75;;;;;;;17.14;100.00;101300.09;5009696;28;20426;-64
2023/06/13 03:40:38;;;;;;;9.88;3.70;;;;;;;17.07;100.00;101307.53;5010763;28;20085;-65
2023/06/13 03:43:05;;;;;;;13.32;4.45;;;;;;;17.01;100.00;101304.34;5020100;28;20042;-65
2023/06/13 03:45:32;;;;;;;12.73;4.28;;;;;;;17.04;100.00;101310.31;5010164;28;20064;-65
2023/06/13 03:47:59;;;;;;;10.70;3.88;;;;;;;17.06;100.00;101302.31;5008295;28;20049;-65
2023/06/13 03:50:26;;;;;;;9.20;4.05;;;;;;;17.09;100.00;101296.84;5001437;28;20041;-65
2023/06/13 03:52:53;;;;;;;11.55;4.05;;;;;;;17.12;100.00;101307.25;5007961;28;20053;-65
2023/06/13 03:55:20;;;;;;;11.75;3.65;;;;;;;17.29;100.00;101300.16;5009833;28;20081;-65
2023/06/13 03:57:46;;;;;;;9.55;3.97;;;;;;;17.33;100.00;101309.63;5004633;28;20041;-65
2023/06/13 04:00:14;;;;;;;11.40;4.45;;;;;;;17.29;100.00;101306.31;5008843;28;20419;-65
2023/06/13 04:02:41;;;;;;;14.50;4.30;;;;;;;17.06;100.00;101302.31;5008366;28;20085;-65
2023/06/13 04:05:08;;;;;;;11.10;3.88;;;;;;;17.03;100.00;101297.19;5009751;28;20049;-65
2023/06/13 04:07:36;;;;;;;11.45;4.13;;;;;;;17.25;100.00;101302.13;5009402;28;20080;-65
2023/06/13 04:10:03;;;;;;;8.90;3.05;;;;;;;17.35;100.00;101310.38;5009917;28;20542;-65
2023/06/13 04:12:30;;;;;;;11.35;3.90;;;;;;;17.40;100.00;101303.03;5008488;28;20533;-65
2023/06/13 04:14:58;;;;;;;9.05;3.25;;;;;;;17.48;100.00;101290.22;4998115;28;20487;-65
2023/06/13 04:17:24;;;;;;;9.13;3.40;;;;;;;17.46;100.00;101294.78;5007391;28;20060;-65
2023/06/13 04:19:52;;;;;;;9.68;3.30;;;;;;;17.46;100.00;101297.41;5002090;28;20059;-65
2023/06/13 04:22:19;;;;;;;9.15;3.33;;;;;;;17.57;100.00;101296.78;5024052;28;20088;-65
2023/06/13 04:24:47;;;;;;;10.80;3.45;;;;;;;17.53;100.00;101303.19;5009874;28;20049;-65
2023/06/13 04:27:19;;;;;;;9.45;3.78;;;;;;;17.43;100.00;101302.88;5009896;28;20053;-65
2023/06/13 04:29:47;;;;;;;10.40;4.20;;;;;;;17.31;100.00;101308.88;4995138;28;20050;-65
2023/06/13 04:32:17;;;;;;;13.57;4.60;;;;;;;17.29;100.00;101310.75;5010162;28;20137;-65
2023/06/13 04:34:45;;;;;;;10.48;4.63;;;;;;;17.03;100.00;101295.41;5010396;28;20736;-65
2023/06/13 04:37:13;;;;;;;11.65;4.53;;;;;;;17.13;100.00;101298.38;5009270;28;20050;-65
2023/06/13 04:39:40;;;;;;;12.32;4.55;;;;;;;17.30;100.00;101312.44;5010004;28;20116;-65
2023/06/13 04:42:07;;;;;;;10.05;4.15;;;;;;;17.41;100.00;101318.00;5018831;28;20073;-65
2023/06/13 04:44:35;;;;;;;12.52;4.68;;;;;;;17.36;100.00;101315.59;5009846;28;20400;-65
2023/06/13 04:47:02;;;;;;;14.25;4.65;;;;;;;17.34;100.00;101319.28;5009761;28;20479;-65
2023/06/13 04:49:30;;;;;;;10.50;4.25;;;;;;;17.48;100.00;101319.34;5008939;28;20392;-65
2023/06/13 04:51:58;;;;;;;12.70;5.25;;;;;;;17.41;100.00;101321.50;5013551;28;20063;-65
2023/06/13 04:54:25;;;;;;;12.63;4.80;;;;;;;17.70;100.00;101315.47;5010009;28;20144;-65
2023/06/13 04:56:52;;;;;;;14.07;4.07;;;;;;;17.82;100.00;101315.59;5009808;28;20056;-65
2023/06/13 04:59:19;;;;;;;13.65;4.75;;;;;;;17.65;100.00;101316.59;5009694;28;20058;-65
2023/06/13 05:01:47;;;;;;;14.40;5.57;;;;;;;17.63;100.00;101323.75;5007745;28;20054;-65
2023/06/13 05:04:15;;;;;;;11.30;4.38;;;;;;;17.86;100.00;101320.75;5009437;28;20444;-65
2023/06/13 05:06:42;;;;;;;13.05;4.72;;;;;;;17.97;100.00;101323.59;5009388;28;20057;-65
2023/06/13 05:09:09;;;;;;;13.98;4.53;;;;;;;18.07;100.00;101327.41;5009873;28;20116;-65
2023/06/13 05:11:35;;;;;;;14.15;4.93;;;;;;;18.08;100.00;101317.66;5012712;28;20037;-65
2023/06/13 05:14:02;;;;;;;9.60;4.05;;;;;;;18.14;100.00;101333.19;5008308;28;20048;-65
2023/06/13 05:16:29;;;;;;;12.52;4.82;;;;;;;17.98;100.00;101331.47;5010705;28;21263;-65
2023/06/13 05:18:57;;;;;;;13.90;4.97;;;;;;;18.02;100.00;101334.78;5009437;28;20136;-65
2023/06/13 05:21:24;;;;;;;12.05;4.70;;;;;;;18.14;100.00;101342.00;5008993;28;20152;-65
2023/06/13 05:23:52;;;;;;;14.93;5.43;;;;;;;18.31;100.00;101340.13;5010740;28;20100;-65
2023/06/13 05:26:20;;;;;;;15.43;6.18;;;;;;;18.06;100.00;101332.78;5010016;28;20104;-66
2023/06/13 05:28:47;;;;;;;15.90;4.85;;;;;;;18.31;100.00;101346.28;5009328;28;20053;-65
2023/06/13 05:31:14;;;;;;;16.38;5.25;;;;;;;18.62;100.00;101359.47;5000810;28;20060;-66
2023/06/13 05:33:41;;;;;;;12.43;5.03;;;;;;;18.48;100.00;101333.81;5013297;28;20072;-66
2023/06/13 05:36:08;;;;;;;16.48;6.80;;;;;;;18.81;100.00;101362.69;5013347;28;20046;-66
2023/06/13 05:38:36;;;;;;;17.90;5.65;;;;;;;18.66;100.00;101355.69;5013129;28;20145;-66
2023/06/13 05:41:03;;;;;;;15.23;5.97;;;;;;;18.97;100.00;101360.81;5011425;28;20046;-66
2023/06/13 05:43:30;;;;;;;12.73;4.80;;;;;;;19.79;100.00;101362.69;5004353;28;20132;-66
2023/06/13 05:45:56;;;;;;;15.25;4.88;;;;;;;19.87;100.00;101369.19;5005636;28;20052;-66
2023/06/13 05:48:23;;;;;;;12.45;5.10;;;;;;;19.83;100.00;101362.41;4997932;28;20411;-66
2023/06/13 05:50:50;;;;;;;12.60;4.30;;;;;;;20.46;100.00;101373.22;5004511;28;20056;-66
2023/06/13 05:53:17;;;;;;;12.68;5.32;;;;;;;20.54;100.00;101370.00;5005436;28;20136;-66
2023/06/13 05:55:44;;;;;;;14.70;5.18;;;;;;;20.55;100.00;101379.69;5012679;28;20064;-66
2023/06/13 05:58:11;;;;;;;12.43;4.45;;;;;;;20.81;100.00;101381.41;5012217;28;20085;-66
2023/06/13 06:00:40;;;;;;;16.52;5.63;;;;;;;21.11;100.00;101377.53;5012393;28;20514;-66
2023/06/13 06:03:07;;;;;;;12.65;5.55;;;;;;;20.88;100.00;101381.00;5009337;28;20116;-66
2023/06/13 06:05:34;;;;;;;14.63;5.57;;;;;;;20.79;100.00;101377.19;5007551;28;20056;-66
2023/06/13 06:08:01;;;;;;;14.45;4.82;;;;;;;21.06;100.00;101379.66;5011076;28;20058;-66
2023/06/13 06:10:28;;;;;;;15.10;6.40;;;;;;;21.50;100.00;101380.94;5004089;28;20054;-66
2023/06/13 06:12:55;;;;;;;13.10;4.72;;;;;;;21.43;100.00;101383.16;5002519;28;20496;-66
2023/06/13 06:15:21;;;;;;;13.73;5.75;;;;;;;21.45;100.00;101393.72;5010794;28;20050;-66
2023/06/13 06:17:50;;;;;;;11.88;4.65;;;;;;;21.37;100.00;101383.63;5012095;28;20054;-66
2023/06/13 06:20:17;;;;;;;15.95;5.82;;;;;;;21.77;100.00;101391.38;5010777;28;20053;-66
2023/06/13 06:22:45;;;;;;;13.52;4.68;;;;;;;21.96;100.00;101382.00;5006205;28;20468;-66
2023/06/13 06:25:19;;;;;;;15.30;5.63;;;;;;;22.14;100.00;101390.41;5012094;28;20056;-66
2023/06/13 06:27:50;;;;;;;11.63;4.47;;;;;;;22.01;100.00;101385.16;5008442;28;20495;-66
2023/06/13 06:30:17;;;;;;;12.07;4.93;;;;;;;21.93;100.00;101395.56;4994960;28;20050;-66
2023/06/13 06:32:44;;;;;;;12.45;4.43;;;;;;;22.56;100.00;101383.63;5005907;28;20052;-66
2023/06/13 06:35:11;;;;;;;12.45;4.93;;;;;;;22.31;100.00;101389.13;5006848;28;20050;-66
2023/06/13 06:37:38;;;;;;;12.38;5.00;;;;;;;22.21;100.00;101391.66;5010120;28;20053;-66
2023/06/13 06:40:06;;;;;;;10.60;3.78;;;;;;;21.85;100.00;101384.59;5003791;28;20065;-66
2023/06/13 06:42:33;;;;;;;11.07;3.40;;;;;;;22.30;100.00;101390.97;5009158;28;20141;-66
2023/06/13 06:44:59;;;;;;;11.65;3.53;;;;;;;22.44;100.00;101387.22;5010431;28;20050;-66
2023/06/13 06:47:26;;;;;;;10.43;4.20;;;;;;;22.09;100.00;101385.41;5011496;28;20045;-66
2023/06/13 06:49:53;;;;;;;11.25;3.50;;;;;;;22.44;100.00;101386.41;5012471;28;20111;-66
2023/06/13 06:52:20;;;;;;;9.38;3.20;;;;;;;22.78;100.00;101383.75;5014792;28;20137;-66
2023/06/13 06:54:47;;;;;;;9.98;3.35;;;;;;;23.08;100.00;101384.00;5010535;28;20257;-66
2023/06/13 06:57:13;;;;;;;10.55;3.72;;;;;;;23.17;100.00;101381.56;5009646;28;20061;-66
2023/06/13 06:59:40;;;;;;;12.07;3.72;;;;;;;22.94;100.00;101377.03;5009179;28;20050;-66
2023/06/13 07:02:08;;;;;;;10.88;3.67;;;;;;;23.12;100.00;101374.78;5006803;28;20401;-66
2023/06/13 07:04:35;;;;;;;16.52;4.50;;;;;;;22.74;100.00;101378.63;5001404;28;20512;-66
2023/06/13 07:07:03;;;;;;;12.23;3.47;;;;;;;22.89;100.00;101379.22;5003179;28;20392;-66
2023/06/13 07:09:29;;;;;;;12.40;4.40;;;;;;;23.22;100.00;101379.38;4998207;28;20388;-66
2023/06/13 07:11:57;;;;;;;14.00;3.88;;;;;;;23.64;100.00;101379.50;5002013;28;20064;-66
2023/06/13 07:14:25;;;;;;;15.95;4.40;;;;;;;23.68;100.00;101379.09;5004219;28;20046;-66
2023/06/13 07:16:54;;;;;;;10.40;3.72;;;;;;;23.78;100.00;101389.03;5000954;28;20064;-66
2023/06/13 07:19:21;;;;;;;14.63;4.80;;;;;;;22.94;100.00;101387.72;5005720;28;20138;-66
2023/06/13 07:21:48;;;;;;;12.45;3.90;;;;;;;23.25;100.00;101393.31;5007357;28;20054;-66
2023/06/13 07:24:15;;;;;;;15.38;4.85;;;;;;;24.05;100.00;101400.13;5002727;28;20053;-66
2023/06/13 07:26:42;;;;;;;13.88;4.13;;;;;;;24.61;100.00;101392.72;5002463;28;20117;-65
2023/06/13 07:29:09;;;;;;;13.65;4.05;;;;;;;25.12;100.00;101385.63;4998334;28;20052;-65
2023/06/13 07:31:36;;;;;;;13.73;3.85;;;;;;;24.92;100.00;101387.38;5001378;28;20060;-65
2023/06/13 07:34:03;;;;;;;13.93;4.13;;;;;;;24.64;100.00;101382.59;5000698;28;20460;-65
2023/06/13 07:36:41;;;;;;;16.25;4.55;;;;;;;24.55;100.00;101393.28;5010551;28;20515;-65
2023/06/13 07:39:14;;;;;;;15.32;3.90;;;;;;;24.59;100.00;101400.06;5003386;28;20381;-65
2023/06/13 07:41:44;;;;;;;12.20;3.92;;;;;;;23.88;100.00;101404.19;5001458;28;20103;-65
2023/06/13 07:44:10;;;;;;;16.40;4.72;;;;;;;24.18;100.00;101401.75;5002043;28;20048;-65
2023/06/13 07:46:38;;;;;;;17.02;4.53;;;;;;;23.48;100.00;101398.63;5001254;28;20050;-65
2023/06/13 07:49:04;;;;;;;15.02;4.47;;;;;;;23.91;100.00;101411.13;4999475;28;20093;-65
2023/06/13 07:51:32;;;;;;;11.30;3.70;;;;;;;23.97;100.00;101405.25;5000847;28;20475;-65
2023/06/13 07:53:58;;;;;;;12.00;4.25;;;;;;;23.96;100.00;101416.94;5003435;28;20069;-65
2023/06/13 07:56:25;;;;;;;12.43;3.53;;;;;;;23.84;100.00;101408.13;5001497;28;20047;-65
2023/06/13 07:58:52;;;;;;;14.85;4.10;;;;;;;23.98;100.00;101414.16;5000019;28;20137;-64
2023/06/13 08:01:21;;;;;;;12.65;3.58;;;;;;;24.28;100.00;101401.84;4994594;28;20046;-65
2023/06/13 08:03:47;;;;;;;9.45;2.95;;;;;;;24.80;100.00;101421.44;5009054;28;20061;-65
2023/06/13 08:06:15;;;;;;;12.20;3.70;;;;;;;25.24;100.00;101413.16;5009125;28;20128;-65
2023/06/13 08:08:42;;;;;;;10.52;3.33;;;;;;;25.18;100.00;101418.06;4997263;28;20550;-65
2023/06/13 08:11:09;;;;;;;12.57;3.53;;;;;;;24.97;100.00;101411.94;5001522;28;20140;-64
2023/06/13 08:13:36;;;;;;;19.00;4.30;;;;;;;24.53;100.00;101417.50;5001495;28;20149;-65
2023/06/13 08:16:03;;;;;;;13.88;3.55;;;;;;;24.87;100.00;101417.25;5008922;28;20487;-65
2023/06/13 08:18:30;;;;;;;10.57;3.40;;;;;;;25.49;100.00;101415.34;5011351;28;20156;-65
2023/06/13 08:20:57;;;;;;;10.05;3.42;;;;;;;26.01;100.00;101411.59;5006874;28;20140;-65
2023/06/13 08:23:23;;;;;;;17.27;4.88;;;;;;;25.99;100.00;101418.94;5014798;28;20130;-65
2023/06/13 08:25:50;;;;;;;12.07;3.45;;;;;;;25.58;100.00;101425.22;5011856;28;20482;-66
2023/06/13 08:28:17;;;;;;;12.85;3.30;;;;;;;25.53;100.00;101426.63;5011850;28;20062;-66
2023/06/13 08:30:45;;;;;;;13.05;4.20;;;;;;;25.57;100.00;101430.75;5019874;28;20068;-66
2023/06/13 08:33:13;;;;;;;13.13;4.00;;;;;;;25.68;100.00;101422.56;4996114;28;20046;-66
2023/06/13 08:35:39;;;;;;;13.38;4.03;;;;;;;25.33;100.00;101421.22;5017701;28;20087;-66
2023/06/13 08:38:07;;;;;;;14.70;3.75;;;;;;;25.45;100.00;101423.81;4994050;28;20323;-66
2023/06/13 08:40:34;;;;;;;12.05;4.00;;;;;;;25.20;100.00;101429.50;5001709;28;20093;-66
2023/06/13 08:43:01;;;;;;;10.88;3.40;;;;;;;25.01;100.00;101421.41;5011088;28;20056;-66
2023/06/13 08:45:28;;;;;;;11.70;3.22;;;;;;;25.30;100.00;101426.88;5018989;28;20066;-66
2023/06/13 08:47:55;;;;;;;12.07;4.15;;;;;;;24.71;100.00;101433.81;5027273;28;20224;-66
2023/06/13 08:50:26;;;;;;;11.50;4.13;;;;;;;24.81;100.00;101420.47;4992089;28;20042;-66
2023/06/13 08:52:55;;;;;;;13.23;4.60;;;;;;;24.74;100.00;101430.03;5005973;28;20046;-66
2023/06/13 08:55:23;;;;;;;10.10;3.20;;;;;;;25.19;100.00;101430.47;5004838;28;20045;-66
2023/06/13 08:58:13;;;;;;;11.32;3.60;;;;;;;25.13;100.00;101431.03;5010076;28;20057;-66
2023/06/13 09:00:41;;;;;;;13.68;3.80;;;;;;;25.03;100.00;101438.19;5019641;28;20049;-66
2023/06/13 09:03:12;;;;;;;13.20;3.78;;;;;;;25.56;100.00;101435.25;5025984;28;20049;-66
2023/06/13 09:05:40;;;;;;;11.52;3.80;;;;;;;25.87;100.00;101428.91;5030634;28;20049;-66
2023/06/13 09:08:09;;;;;;;12.40;3.63;;;;;;;25.92;100.00;101430.22;5016519;28;20050;-66
2023/06/13 09:10:56;;;;;;;10.00;3.28;;;;;;;26.18;100.00;101428.81;5012041;28;20057;-66
2023/06/13 09:13:24;;;;;;;12.07;4.05;;;;;;;25.33;100.00;101428.44;5010385;28;20045;-66
2023/06/13 09:15:51;;;;;;;13.13;4.38;;;;;;;25.07;100.00;101426.19;5013327;28;20535;-66
2023/06/13 09:18:18;;;;;;;11.48;3.53;;;;;;;25.49;100.00;101438.63;5011194;28;20050;-66
2023/06/13 09:20:46;;;;;;;15.02;4.00;;;;;;;24.74;100.00;101441.56;5008406;28;20133;-66
2023/06/13 09:23:17;;;;;;;12.18;4.15;;;;;;;25.34;100.00;101436.34;5009498;28;20559;-66
2023/06/13 09:25:48;;;;;;;9.70;3.53;;;;;;;25.28;100.00;101434.19;5029559;28;20136;-66
2023/06/13 09:28:31;;;;;;;12.25;3.78;;;;;;;25.72;100.00;101434.69;5023366;28;20050;-66
2023/06/13 09:30:58;;;;;;;16.35;4.05;;;;;;;25.25;100.00;101431.81;5031643;28;20483;-66
2023/06/13 09:33:26;;;;;;;9.48;3.33;;;;;;;25.49;100.00;101431.41;5018365;28;20444;-66
2023/06/13 09:35:53;;;;;;;11.68;3.63;;;;;;;24.92;100.00;101438.28;5030314;28;20081;-66
2023/06/13 09:38:23;;;;;;;12.95;4.18;;;;;;;24.90;100.00;101442.94;5028732;28;20137;-66
2023/06/13 09:40:52;;;;;;;12.82;4.00;;;;;;;24.54;100.00;101437.94;5014974;28;20049;-66
2023/06/13 09:43:19;;;;;;;10.13;3.72;;;;;;;25.22;100.00;101437.41;5018820;28;20077;-66
2023/06/13 09:45:48;;;;;;;14.07;4.78;;;;;;;24.81;100.00;101442.75;5028409;28;20053;-66
2023/06/13 09:48:15;;;;;;;10.75;3.97;;;;;;;24.87;100.00;101446.72;5023264;28;20072;-66
2023/06/13 09:50:42;;;;;;;12.40;4.53;;;;;;;25.11;100.00;101446.41;5025133;28;20128;-67
2023/06/13 09:53:10;;;;;;;15.98;5.00;;;;;;;24.93;100.00;101451.53;5017944;28;20056;-67
2023/06/13 09:55:36;;;;;;;11.98;3.90;;;;;;;25.04;100.00;101439.88;5005960;28;20088;-67
2023/06/13 09:58:03;;;;;;;19.35;4.50;;;;;;;25.46;100.00;101438.91;5011840;28;20373;-66
2023/06/13 10:00:33;;;;;;;21.27;4.78;;;;;;;25.41;100.00;101441.13;5012389;28;20136;-66
2023/06/13 10:03:01;;;;;;;18.27;5.35;;;;;;;25.38;100.00;101428.88;4998992;28;20133;-66
2023/06/13 10:05:43;;;;;;;11.82;4.53;;;;;;;26.18;100.00;101437.69;5009561;28;20505;-66
2023/06/13 10:08:10;;;;;;;15.18;4.00;;;;;;;26.07;100.00;101437.88;5010424;28;20137;-66
2023/06/13 10:10:37;;;;;;;11.43;4.18;;;;;;;25.71;100.00;101435.72;5011349;28;20060;-67
2023/06/13 10:13:09;;;;;;;12.70;4.60;;;;;;;25.16;100.00;101443.28;5010779;28;20057;-67
2023/06/13 10:15:45;;;;;;;15.27;4.68;;;;;;;25.22;100.00;101434.72;5011939;28;20145;-67
2023/06/13 10:18:14;;;;;;;14.40;4.50;;;;;;;25.71;100.00;101438.38;5010497;28;20708;-67
2023/06/13 10:20:46;;;;;;;14.07;4.28;;;;;;;25.68;100.00;101443.19;5011684;28;20057;-67
2023/06/13 10:23:15;;;;;;;14.35;4.53;;;;;;;25.05;100.00;101438.88;5009925;28;20209;-67
2023/06/13 10:25:48;;;;;;;11.52;3.85;;;;;;;25.54;100.00;101437.22;5023531;28;20403;-67
2023/06/13 10:28:35;;;;;;;;;;;;;;;25.90;100.00;101439.38;5011421;28;20038;-67
2023/06/13 10:31:16;;;;;;;14.98;4.07;;;;;;;26.45;100.00;101439.63;5008299;28;19956;-67
2023/06/13 10:33:58;;;;;;;15.35;4.38;;;;;;;25.84;100.00;101430.06;5007926;28;20141;-66
2023/06/13 10:36:57;;;;;;;16.47;4.73;;;;;;;26.19;95.40;101442.09;5000560;28;20057;-66
2023/06/13 10:39:55;;;;;;;15.15;4.50;;;;;;;25.83;100.00;101443.59;5008152;28;20301;-66
2023/06/13 10:42:35;;;;;;;16.70;4.38;;;;;;;25.72;97.59;101423.97;5008600;28;20136;-67
2023/06/13 10:45:13;;;;;;;14.93;4.70;;;;;;;25.28;99.90;101439.56;5011446;28;20049;-67
2023/06/13 10:47:39;;;;;;;11.18;4.60;;;;;;;25.82;100.00;101428.53;5008434;28;20050;-67
2023/06/13 10:50:08;;;;;;;12.52;4.20;;;;;;;26.38;94.29;101435.81;5009348;28;20046;-67
2023/06/13 10:52:35;;;;;;;12.98;3.63;;;;;;;26.32;98.88;101434.56;5026284;28;20156;-66
2023/06/13 10:55:02;;;;;;;14.55;4.10;;;;;;;26.05;94.05;101429.94;5011349;28;20133;-67
2023/06/13 10:57:48;;;;;;;13.10;4.10;;;;;;;25.83;91.49;101439.09;5007106;28;20078;-67
2023/06/13 11:00:33;;;;;;;10.90;4.40;;;;;;;26.17;97.60;101425.28;5010863;28;20054;-67
2023/06/13 11:03:05;;;;;;;18.98;4.55;;;;;;;25.94;94.16;101440.81;5001895;28;20077;-67
2023/06/13 11:05:44;;;;;;;13.90;4.50;;;;;;;26.16;100.00;101446.91;5002022;28;20054;-67
2023/06/13 11:08:22;;;;;;;12.50;5.10;;;;;;;25.37;93.62;101448.59;5009941;28;20480;-66
2023/06/13 11:10:51;;;;;;;10.50;4.38;;;;;;;25.67;97.42;101447.69;5008539;28;20168;-67
2023/06/13 11:13:23;;;;;;;12.35;4.63;;;;;;;25.48;100.00;101440.47;5010708;28;20073;-67
2023/06/13 11:15:54;;;;;;;12.90;4.03;;;;;;;26.26;93.86;101435.16;5010806;28;20136;-67
2023/06/13 11:18:20;;;;;;;9.35;3.90;;;;;;;26.49;95.62;101442.91;5007722;28;20093;-67